Time;durP1;ratioP1;P1;durP2;ratioP2;P2;SDS_P1;SDS_P2;PMS_P1;PMS_P2;Temp;Humidity;BMP_temperature;BMP_pressure;BME280_temperature;BME280_humidity;BME280_pressure;Samples;Min_cycle;Max_cycle;Signal;HPM_P1;HPM_P2
2022/09/05 00:00:51;;;;;;;2.50;1.60;;;;;;;;;;5072862;28;20277;-81
2022/09/05 00:03:31;;;;;;;2.67;1.58;;;;;;;18.42;nan;100758.13;5073087;28;20427;-84
2022/09/05 00:06:10;;;;;;;2.30;1.63;;;;;;;;;;5067203;28;20043;-81
2022/09/05 00:08:38;;;;;;;1.90;1.40;;;;;;;;;;5079063;28;20756;-83
2022/09/05 00:11:15;;;;;;;1.83;1.30;;;;;;;;;;5056573;28;20495;-80
2022/09/05 00:13:42;;;;;;;1.20;1.00;;;;;;;;;;5059117;28;20407;-80
2022/09/05 00:16:10;;;;;;;1.20;0.95;;;;;;;;;;5052038;28;20440;-81
2022/09/05 00:18:41;;;;;;;2.10;1.40;;;;;;;;;;5070472;28;20418;-80
2022/09/05 00:21:16;;;;;;;1.65;1.20;;;;;;;;;;5076606;28;20402;-81
2022/09/05 00:23:53;;;;;;;1.40;1.20;;;;;;;18.64;nan;100729.38;5075838;28;20404;-83
2022/09/05 00:26:21;;;;;;;2.17;1.50;;;;;;;;;;5070960;28;20642;-82
2022/09/05 00:29:24;;;;;;;2.42;1.60;;;;;;;18.53;nan;100716.53;5074729;28;20043;-81
2022/09/05 00:32:21;;;;;;;3.42;1.80;;;;;;;18.51;nan;100804.28;5001939;28;20050;-80
2022/09/05 00:34:53;;;;;;;;;;;;;;;18.42;nan;100699.22;5046462;28;20062;-81
2022/09/05 00:37:39;;;;;;;;;;;;;;;18.33;nan;100692.38;5077500;28;21568;-82
2022/09/05 00:40:19;;;;;;;;;;;;;;;18.29;nan;100701.81;5063872;28;20730;-82
2022/09/05 00:42:50;;;;;;;3.47;1.80;;;;;;;18.29;nan;100816.09;5060229;28;19964;-81
2022/09/05 00:45:22;;;;;;;2.55;1.90;;;;;;;;;;5072506;28;20029;-81
2022/09/05 00:47:52;;;;;;;3.40;1.77;;;;;;;18.27;nan;100700.34;5077457;28;20036;-80
2022/09/05 00:50:41;;;;;;;2.38;1.75;;;;;;;18.25;nan;100698.69;5076245;28;20491;-80
2022/09/05 00:53:21;;;;;;;2.33;1.83;;;;;;;18.28;nan;100685.94;5079097;28;20510;-79
2022/09/05 00:55:54;;;;;;;3.10;1.90;;;;;;;18.28;nan;100696.63;5054145;28;20029;-79
2022/09/05 00:58:43;;;;;;;2.05;1.60;;;;;;;;;;5053930;28;20056;-79
2022/09/05 01:01:25;;;;;;;1.90;1.40;;;;;;;;;;5068753;28;20426;-83
2022/09/05 01:04:03;;;;;;;2.00;1.58;;;;;;;;;;5071605;28;20037;-82
2022/09/05 01:06:42;;;;;;;2.83;1.90;;;;;;;18.37;nan;100695.44;5057642;28;20046;-81
2022/09/05 01:09:27;;;;;;;1.95;1.50;;;;;;;18.35;nan;100686.78;5061387;28;20053;-81
2022/09/05 01:12:25;;;;;;;2.65;1.70;;;;;;;18.35;nan;100692.16;5065947;28;20055;-81
2022/09/05 01:15:09;;;;;;;2.08;1.52;;;;;;;18.39;nan;100682.69;5074832;28;20036;-82
2022/09/05 01:17:47;;;;;;;2.20;1.65;;;;;;;18.39;nan;100746.97;5069275;28;20049;-82
2022/09/05 01:20:50;;;;;;;2.10;1.52;;;;;;;18.40;nan;100677.16;5068632;28;20058;-82
2022/09/05 01:23:20;;;;;;;3.47;1.80;;;;;;;;;;5089071;28;20033;-82
2022/09/05 01:25:58;;;;;;;2.83;1.90;;;;;;;18.36;nan;100680.44;5072427;28;20110;-82
2022/09/05 01:28:45;;;;;;;2.28;1.40;;;;;;;;;;5069379;28;20032;-82
2022/09/05 01:31:21;;;;;;;2.15;1.55;;;;;;;18.27;nan;100674.41;5075648;28;20036;-82
2022/09/05 01:34:17;;;;;;;2.38;1.60;;;;;;;18.29;nan;100682.25;5074825;28;20028;-82
2022/09/05 01:36:49;;;;;;;3.47;1.30;;;;;;;18.25;nan;100689.84;5068943;28;20665;-81
2022/09/05 01:39:44;;;;;;;2.78;1.50;;;;;;;18.15;nan;100676.00;5070581;28;20071;-82
2022/09/05 01:42:31;;;;;;;2.35;1.63;;;;;;;18.07;nan;100679.66;5042119;28;20043;-81
2022/09/05 01:45:18;;;;;;;1.90;1.40;;;;;;;18.03;nan;100683.75;5068228;28;20032;-82
2022/09/05 01:47:57;;;;;;;1.58;1.30;;;;;;;18.00;nan;100674.28;5063912;28;20048;-82
2022/09/05 01:50:47;;;;;;;1.77;1.30;;;;;;;17.94;nan;100668.88;5061182;28;20054;-81
2022/09/05 01:53:30;;;;;;;2.05;1.55;;;;;;;18.04;nan;100670.19;5075118;28;20043;-80
2022/09/05 01:56:18;;;;;;;1.85;1.40;;;;;;;18.15;nan;100662.63;5074498;28;20032;-83
2022/09/05 01:58:56;;;;;;;2.58;1.70;;;;;;;18.23;nan;100690.06;5069278;28;20036;-82
2022/09/05 02:01:27;;;;;;;3.03;1.50;;;;;;;;;;5069213;28;20040;-81
2022/09/05 02:04:11;;;;;;;;;;;;;;;18.30;nan;100651.75;5070958;28;20033;-83
2022/09/05 02:06:46;;;;;;;1.80;1.23;;;;;;;;;;5061552;28;19923;-83
2022/09/05 02:09:39;;;;;;;2.33;1.40;;;;;;;18.32;nan;100666.59;5070657;28;20032;-82
2022/09/05 02:12:14;;;;;;;2.13;1.35;;;;;;;18.27;nan;100658.34;5068874;28;20040;-81
2022/09/05 02:14:42;;;;;;;1.70;1.40;;;;;;;;;;5072595;28;20082;-81
2022/09/05 02:17:18;;;;;;;;;;;;;;;18.11;nan;100654.13;5053492;28;20045;-81
2022/09/05 02:19:54;;;;;;;;;;;;;;;17.99;nan;100656.53;5073193;28;20336;-82
2022/09/05 02:22:32;;;;;;;1.70;1.25;;;;;;;17.89;nan;100656.09;5070051;28;20374;-81
2022/09/05 02:25:03;;;;;;;1.50;1.13;;;;;;;;;;5055824;28;20024;-82
2022/09/05 02:27:28;;;;;;;1.50;1.10;;;;;;;;;;5052866;28;20774;-82
2022/09/05 02:30:04;;;;;;;2.03;1.50;;;;;;;;;;5071319;28;20426;-81
2022/09/05 02:32:35;;;;;;;1.30;1.10;;;;;;;17.82;nan;100648.00;5076987;28;20389;-84
2022/09/05 02:35:10;;;;;;;1.30;1.00;;;;;;;17.70;nan;100651.41;5079215;28;20143;-81
2022/09/05 02:38:01;;;;;;;1.20;1.02;;;;;;;17.59;nan;100608.16;5069314;28;20042;-81
2022/09/05 02:40:29;;;;;;;2.65;1.85;;;;;;;17.49;nan;100655.78;5072978;28;20078;-81
2022/09/05 02:43:09;;;;;;;1.52;1.02;;;;;;;17.38;nan;100654.47;5078289;28;20047;-81
2022/09/05 02:45:43;;;;;;;1.27;1.10;;;;;;;;;;5072944;28;20059;-81
2022/09/05 02:48:31;;;;;;;2.53;1.63;;;;;;;17.13;nan;100648.69;5096587;28;20064;-81
2022/09/05 02:51:07;;;;;;;3.10;1.60;;;;;;;17.00;nan;100645.91;5079722;28;20036;-81
2022/09/05 02:53:36;;;;;;;2.20;2.00;;;;;;;16.91;nan;100653.22;5079271;28;20051;-82
2022/09/05 02:56:11;;;;;;;1.75;1.48;;;;;;;16.82;nan;100664.22;5078451;28;20542;-81
2022/09/05 02:59:02;;;;;;;2.03;1.42;;;;;;;16.70;nan;100651.31;5077629;28;20089;-81
2022/09/05 03:01:44;;;;;;;2.50;1.60;;;;;;;;;;5077633;28;20032;-81
2022/09/05 03:04:19;;;;;;;2.72;2.00;;;;;;;;;;5075616;28;20048;-81
2022/09/05 03:07:27;;;;;;;2.47;1.80;;;;;;;16.47;nan;100646.16;5081896;28;20038;-81
2022/09/05 03:09:59;;;;;;;1.98;1.58;;;;;;;;;;5075032;28;20032;-81
2022/09/05 03:12:35;;;;;;;2.10;1.70;;;;;;;16.49;nan;100681.50;5075061;28;20404;-82
2022/09/05 03:15:22;;;;;;;2.10;1.70;;;;;;;;;;5075774;28;20467;-82
2022/09/05 03:18:16;;;;;;;2.10;1.50;;;;;;;16.31;nan;100663.19;5075591;28;20124;-81
2022/09/05 03:20:52;;;;;;;1.88;1.67;;;;;;;;;;5058284;28;20901;-81
2022/09/05 03:23:35;;;;;;;;;;;;;;;16.16;nan;100659.72;5073476;28;20499;-82
2022/09/05 03:26:01;;;;;;;2.58;1.73;;;;;;;16.09;nan;100669.47;5071470;28;19916;-82
2022/09/05 03:29:06;;;;;;;2.17;1.70;;;;;;;15.98;nan;100661.94;5055124;28;20048;-82
2022/09/05 03:31:38;;;;;;;1.98;1.63;;;;;;;;;;5061159;28;20090;-81
2022/09/05 03:34:21;;;;;;;2.47;1.87;;;;;;;15.97;nan;100649.59;5062013;28;20408;-81
2022/09/05 03:36:49;;;;;;;;;;;;;;;15.85;nan;100641.22;5058858;28;20036;-81
2022/09/05 03:39:42;;;;;;;2.38;1.92;;;;;;;;;;5063835;28;19962;-82
2022/09/05 03:42:07;;;;;;;;;;;;;;;;;;5062419;28;20039;-82
2022/09/05 03:44:39;;;;;;;2.60;1.90;;;;;;;;;;5059706;28;19920;-82
2022/09/05 03:47:23;;;;;;;2.63;2.10;;;;;;;15.54;nan;100660.00;5060395;28;20494;-82
2022/09/05 03:50:26;;;;;;;3.30;2.60;;;;;;;15.45;nan;100657.41;5076222;28;20113;-82
2022/09/05 03:53:19;;;;;;;2.75;2.13;;;;;;;15.40;nan;100649.13;5077559;28;20060;-83
2022/09/05 03:55:55;;;;;;;2.60;2.20;;;;;;;;;;5058402;28;20107;-82
2022/09/05 03:58:48;;;;;;;2.20;1.83;;;;;;;15.36;nan;100668.31;5072933;28;21167;-82
2022/09/05 04:01:34;;;;;;;2.45;2.03;;;;;;;;;;5066100;28;20024;-82
2022/09/05 04:04:01;;;;;;;3.00;2.00;;;;;;;;;;5072841;28;20097;-82
2022/09/05 04:06:38;;;;;;;2.40;1.88;;;;;;;;;;5071324;28;20132;-82
2022/09/05 04:09:18;;;;;;;2.45;1.50;;;;;;;15.33;nan;100652.72;5075886;28;20502;-82
2022/09/05 04:11:46;;;;;;;2.22;1.75;;;;;;;;;;5079029;28;20036;-82
2022/09/05 04:14:44;;;;;;;2.28;1.70;;;;;;;15.28;nan;100651.41;5073299;28;20544;-82
2022/09/05 04:17:39;;;;;;;2.75;2.22;;;;;;;;;;5053621;28;20033;-82
2022/09/05 04:20:27;;;;;;;2.55;1.80;;;;;;;15.27;nan;100655.06;5034076;28;20032;-82
2022/09/05 04:23:11;;;;;;;3.72;2.33;;;;;;;;;;5065906;28;20028;-82
2022/09/05 04:26:03;;;;;;;2.70;2.20;;;;;;;;;;5076698;28;20047;-82
2022/09/05 04:28:46;;;;;;;3.70;2.78;;;;;;;15.24;nan;100655.44;5076151;28;20035;-82
2022/09/05 04:31:20;;;;;;;2.83;2.38;;;;;;;;;;5085828;28;20043;-82
2022/09/05 04:34:07;;;;;;;3.15;2.70;;;;;;;;;;5053501;28;20037;-82
2022/09/05 04:36:34;;;;;;;2.70;2.38;;;;;;;;;;5077086;28;20134;-82
2022/09/05 04:39:19;;;;;;;4.13;2.70;;;;;;;;;;5056884;28;20039;-82
2022/09/05 04:42:00;;;;;;;5.55;3.22;;;;;;;15.10;nan;100648.22;5068320;28;20063;-82
2022/09/05 04:44:28;;;;;;;5.40;3.40;;;;;;;;;;5076781;28;20043;-82
2022/09/05 04:46:55;;;;;;;3.95;2.88;;;;;;;;;;5056624;28;20821;-82
2022/09/05 04:49:20;;;;;;;;;;;;;;;;;;5057677;28;20068;-82
2022/09/05 04:52:05;;;;;;;3.80;2.75;;;;;;;;;;5063826;28;19955;-83
2022/09/05 04:54:34;;;;;;;4.05;3.00;;;;;;;;;;5057652;28;20036;-83
2022/09/05 04:57:20;;;;;;;3.17;2.67;;;;;;;;;;5055953;28;20033;-82
2022/09/05 04:59:58;;;;;;;4.40;2.72;;;;;;;15.11;nan;100665.03;5074065;28;20051;-83
2022/09/05 05:02:36;;;;;;;3.85;2.65;;;;;;;;;;5068445;28;20514;-82
2022/09/05 05:05:05;;;;;;;3.83;2.97;;;;;;;15.18;nan;100668.63;5066723;28;20032;-83
2022/09/05 05:07:40;;;;;;;3.90;2.75;;;;;;;;;;5061959;28;20028;-82
2022/09/05 05:10:05;;;;;;;;;;;;;;;;;;5073256;28;20090;-82
2022/09/05 05:12:30;;;;;;;;;;;;;;;;;;5055794;28;20563;-82
2022/09/05 05:15:07;;;;;;;;;;;;;;;15.30;nan;100691.16;5076193;28;19946;-82
2022/09/05 05:17:37;;;;;;;3.22;2.08;;;;;;;;;;5071934;28;19920;-82
2022/09/05 05:20:11;;;;;;;3.90;2.65;;;;;;;15.36;nan;100695.78;5057771;28;20033;-83
2022/09/05 05:22:45;;;;;;;2.97;2.40;;;;;;;;;;5068409;28;20094;-83
2022/09/05 05:25:11;;;;;;;2.92;2.33;;;;;;;;;;5075344;28;20037;-82
2022/09/05 05:27:43;;;;;;;;;;;;;;;15.65;nan;100679.03;5072679;28;20060;-83
2022/09/05 05:30:10;;;;;;;3.00;2.17;;;;;;;;;;5073298;28;20410;-83
2022/09/05 05:32:48;;;;;;;2.90;2.20;;;;;;;;;;5072784;28;20032;-83
2022/09/05 05:35:14;;;;;;;;;;;;;;;16.21;nan;100683.16;5070522;28;20032;-83
2022/09/05 05:37:42;;;;;;;2.83;1.90;;;;;;;;;;5071383;28;20529;-83
2022/09/05 05:40:08;;;;;;;2.83;2.03;;;;;;;16.55;nan;100696.75;5073377;28;20025;-83
2022/09/05 05:42:34;;;;;;;2.95;2.10;;;;;;;;;;5074623;28;20128;-84
2022/09/05 05:45:00;;;;;;;3.58;2.17;;;;;;;;;;5076159;28;20291;-83
2022/09/05 05:47:30;;;;;;;4.32;3.28;;;;;;;17.07;nan;100774.22;5071818;28;20047;-83
2022/09/05 05:50:06;;;;;;;4.43;3.20;;;;;;;17.19;nan;100703.22;5102586;28;20043;-83
2022/09/05 05:53:09;;;;;;;5.82;2.90;;;;;;;17.43;nan;100722.56;5093998;28;20287;-84
2022/09/05 05:56:02;;;;;;;4.03;2.70;;;;;;;17.62;nan;100730.75;5111297;28;20110;-84
2022/09/05 05:58:55;;;;;;;3.42;2.45;;;;;;;17.73;nan;100732.09;5068858;28;20990;-84
2022/09/05 06:01:35;;;;;;;3.22;2.45;;;;;;;17.84;nan;100744.13;5077705;28;20110;-84
2022/09/05 06:04:22;;;;;;;3.20;2.53;;;;;;;17.94;nan;100755.31;5069271;28;20036;-83
2022/09/05 06:07:26;;;;;;;3.25;2.50;;;;;;;18.01;nan;100758.84;5066757;28;20113;-84
2022/09/05 06:10:13;;;;;;;5.00;3.20;;;;;;;18.21;nan;100761.69;5063664;28;20511;-83
2022/09/05 06:13:01;;;;;;;3.72;3.20;;;;;;;18.36;nan;100750.84;5069828;28;20040;-84
2022/09/05 06:15:45;;;;;;;5.28;3.20;;;;;;;18.44;nan;100772.09;5068864;28;20566;-83
2022/09/05 06:18:29;;;;;;;3.75;3.08;;;;;;;18.60;nan;100784.34;5059185;28;20040;-84
2022/09/05 06:21:03;;;;;;;3.35;2.55;;;;;;;19.09;nan;100954.06;5067400;28;20503;-83
2022/09/05 06:23:28;;;;;;;3.78;2.75;;;;;;;19.61;nan;100944.59;5077202;28;20039;-84
2022/09/05 06:26:12;;;;;;;3.20;2.60;;;;;;;20.10;nan;100950.78;5085829;28;20059;-83
2022/09/05 06:28:58;;;;;;;2.47;1.95;;;;;;;;;;5072175;28;20412;-83
2022/09/05 06:31:35;;;;;;;2.72;2.10;;;;;;;;;;5080240;28;20044;-84
2022/09/05 06:34:25;;;;;;;2.88;2.40;;;;;;;21.33;nan;100813.06;5088506;28;20083;-84
2022/09/05 06:36:57;;;;;;;3.13;2.40;;;;;;;;;;5089728;28;20426;-84
2022/09/05 06:39:38;;;;;;;3.25;2.30;;;;;;;22.00;nan;100813.44;5066639;28;20036;-83
2022/09/05 06:42:15;;;;;;;2.92;2.45;;;;;;;22.28;nan;100788.75;5079040;28;20499;-83
2022/09/05 06:44:50;;;;;;;3.47;2.10;;;;;;;;;;5081601;28;20032;-84
2022/09/05 06:47:18;;;;;;;3.10;2.30;;;;;;;23.15;nan;100820.16;5064687;28;20036;-84
2022/09/05 06:49:58;;;;;;;3.10;1.90;;;;;;;23.80;nan;100838.34;5075254;28;20043;-84
2022/09/05 06:52:51;;;;;;;4.03;2.20;;;;;;;24.52;nan;100851.69;5063831;28;20072;-84
2022/09/05 06:55:44;;;;;;;2.70;2.03;;;;;;;25.20;nan;100850.19;5061296;28;20076;-84
2022/09/05 06:58:35;;;;;;;2.30;1.70;;;;;;;25.32;nan;100845.53;5061183;28;20033;-84
2022/09/05 07:01:03;;;;;;;2.80;1.98;;;;;;;25.08;nan;100858.31;5074309;28;20036;-85
2022/09/05 07:03:47;;;;;;;3.78;2.30;;;;;;;24.76;nan;100957.97;5068842;28;20402;-84
2022/09/05 07:06:29;;;;;;;4.53;2.67;;;;;;;24.49;nan;100957.59;5067377;28;20067;-84
2022/09/05 07:09:07;;;;;;;4.25;2.60;;;;;;;24.35;nan;100959.66;5079380;28;20519;-84
2022/09/05 07:11:58;;;;;;;4.38;2.72;;;;;;;24.20;nan;100956.59;5057858;28;20044;-84
2022/09/05 07:14:29;;;;;;;5.75;3.25;;;;;;;24.24;nan;100965.88;5087095;28;20791;-84
2022/09/05 07:17:07;;;;;;;5.95;3.28;;;;;;;24.49;nan;100965.72;5080171;28;20297;-84
2022/09/05 07:19:40;;;;;;;4.45;2.60;;;;;;;24.62;nan;100968.19;5062491;28;20032;-84
2022/09/05 07:22:28;;;;;;;2.97;2.00;;;;;;;24.87;nan;100964.44;5080588;28;20032;-84
2022/09/05 07:24:55;;;;;;;3.03;2.30;;;;;;;24.80;nan;100970.78;5075679;28;20033;-84
2022/09/05 07:27:28;;;;;;;2.60;1.80;;;;;;;25.18;nan;100974.91;5075050;28;20123;-86
2022/09/05 07:29:56;;;;;;;2.90;1.80;;;;;;;25.50;nan;100971.75;5066398;28;20561;-84
2022/09/05 07:32:23;;;;;;;3.33;2.28;;;;;;;25.99;nan;100984.94;5067912;28;20380;-85
2022/09/05 07:34:49;;;;;;;2.30;1.50;;;;;;;26.50;nan;100974.94;5076166;28;20029;-85
2022/09/05 07:37:21;;;;;;;3.55;2.45;;;;;;;26.79;nan;100983.00;5088058;28;20383;-84
2022/09/05 07:39:56;;;;;;;2.90;1.98;;;;;;;26.57;nan;100986.47;5076687;28;20115;-85
2022/09/05 07:42:36;;;;;;;3.03;2.00;;;;;;;26.69;nan;100989.09;5076125;28;20364;-85
2022/09/05 07:45:09;;;;;;;2.38;1.80;;;;;;;27.18;nan;100983.84;5073351;28;20063;-85
2022/09/05 07:47:41;;;;;;;2.50;1.30;;;;;;;27.90;nan;100992.88;5074444;28;20028;-85
2022/09/05 07:50:09;;;;;;;2.78;1.58;;;;;;;28.56;nan;100988.06;5071573;28;20056;-85
2022/09/05 07:52:39;;;;;;;2.85;1.50;;;;;;;28.97;nan;100982.09;5079549;28;20123;-85
2022/09/05 07:55:28;;;;;;;2.63;1.80;;;;;;;29.16;nan;100977.03;5072020;28;20037;-85
2022/09/05 07:57:58;;;;;;;3.30;1.80;;;;;;;29.44;nan;100978.53;5071998;28;20032;-85
2022/09/05 08:00:26;;;;;;;1.67;1.10;;;;;;;29.89;nan;100979.78;5059119;28;20519;-85
2022/09/05 08:02:52;;;;;;;2.00;1.27;;;;;;;30.34;nan;100985.56;5059164;28;20025;-85
2022/09/05 08:05:20;;;;;;;2.20;1.38;;;;;;;30.68;nan;100983.09;5074088;28;20522;-86
2022/09/05 08:07:50;;;;;;;1.83;1.40;;;;;;;30.84;nan;100992.06;5070644;28;20032;-86
2022/09/05 08:10:26;;;;;;;2.58;1.25;;;;;;;30.83;nan;100994.00;5071603;28;20487;-86
2022/09/05 08:12:57;;;;;;;2.42;1.83;;;;;;;30.73;nan;100995.91;5084638;28;20123;-86
2022/09/05 08:15:27;;;;;;;4.07;2.20;;;;;;;30.39;nan;100985.53;5082975;28;20067;-85
2022/09/05 08:18:08;;;;;;;2.38;1.92;;;;;;;30.14;nan;100981.69;5063730;28;20088;-85
2022/09/05 08:20:54;;;;;;;3.83;2.00;;;;;;;30.42;nan;100983.09;5075099;28;20442;-87
2022/09/05 08:23:42;;;;;;;3.35;1.80;;;;;;;31.07;nan;100987.94;5065366;28;20036;-85
2022/09/05 08:26:11;;;;;;;3.03;1.50;;;;;;;31.64;nan;100983.06;5078541;28;20032;-84
2022/09/05 08:29:07;;;;;;;2.95;1.92;;;;;;;31.26;nan;100974.47;5083342;28;20505;-85
2022/09/05 08:31:40;;;;;;;2.15;1.70;;;;;;;31.58;nan;100968.59;5063994;28;20043;-85
2022/09/05 08:34:12;;;;;;;3.70;2.28;;;;;;;31.70;nan;100969.09;5066635;28;20029;-85
2022/09/05 08:36:41;;;;;;;2.67;1.80;;;;;;;31.93;nan;100967.56;5079434;28;20032;-85
2022/09/05 08:39:10;;;;;;;3.53;2.05;;;;;;;32.39;nan;100971.88;5077784;28;20685;-85
2022/09/05 08:41:49;;;;;;;3.88;2.20;;;;;;;32.57;nan;100967.66;5067147;28;20055;-85
2022/09/05 08:44:36;;;;;;;6.70;1.95;;;;;;;32.38;nan;100973.81;5078483;28;20036;-86
2022/09/05 08:47:17;;;;;;;3.58;1.90;;;;;;;32.56;nan;100974.22;5062467;28;20036;-86
2022/09/05 08:50:20;;;;;;;3.90;2.80;;;;;;;32.57;nan;100978.59;5075419;28;20063;-85
2022/09/05 08:53:09;;;;;;;3.58;2.13;;;;;;;32.23;nan;100963.00;5080102;28;20087;-86
2022/09/05 08:55:40;;;;;;;4.28;3.05;;;;;;;31.85;nan;100961.91;5079774;28;20512;-83
2022/09/05 08:58:32;;;;;;;2.53;2.08;;;;;;;30.94;nan;100953.84;5067315;28;20048;-85
2022/09/05 09:01:11;;;;;;;2.78;2.05;;;;;;;30.73;nan;100952.22;5070945;28;20048;-84
2022/09/05 09:03:55;;;;;;;4.07;2.50;;;;;;;31.88;nan;100955.84;5069454;28;20038;-86
2022/09/05 09:06:48;;;;;;;3.72;2.50;;;;;;;33.07;nan;100961.94;5075236;28;20131;-85
2022/09/05 09:09:17;;;;;;;3.60;2.53;;;;;;;33.72;nan;100959.44;5064464;28;20082;-86
2022/09/05 09:11:51;;;;;;;2.75;1.90;;;;;;;34.67;nan;100951.03;5076860;28;20028;-87
2022/09/05 09:14:31;;;;;;;2.90;1.77;;;;;;;35.16;nan;100945.97;5065782;28;20036;-86
2022/09/05 09:17:06;;;;;;;3.50;2.30;;;;;;;35.98;nan;100947.69;5066631;28;20112;-86
2022/09/05 09:19:43;;;;;;;2.53;1.75;;;;;;;36.45;nan;100953.69;5077985;28;20040;-86
2022/09/05 09:22:39;;;;;;;2.45;1.50;;;;;;;36.50;nan;100955.50;5081256;28;20047;-85
2022/09/05 09:25:21;;;;;;;2.85;1.88;;;;;;;35.80;nan;100945.94;5069338;28;20029;-86
2022/09/05 09:28:05;;;;;;;1.88;1.30;;;;;;;34.95;nan;100943.63;5064234;28;20033;-86
2022/09/05 09:30:37;;;;;;;3.42;1.60;;;;;;;34.22;nan;100946.03;5061718;28;20051;-86
2022/09/05 09:33:06;;;;;;;2.13;1.38;;;;;;;33.63;nan;100942.00;5065500;28;20039;-86
2022/09/05 09:35:51;;;;;;;3.22;1.42;;;;;;;33.02;nan;100951.81;5084758;28;20403;-87
2022/09/05 09:38:36;;;;;;;2.35;1.30;;;;;;;32.66;nan;100941.28;5069341;28;20032;-85
2022/09/05 09:41:38;;;;;;;2.20;1.30;;;;;;;33.01;nan;100939.22;5078565;28;20029;-85
2022/09/05 09:44:59;;;;;;;3.03;1.60;;;;;;;34.78;nan;100937.94;5076662;28;20032;-85
2022/09/05 09:47:34;;;;;;;3.13;1.90;;;;;;;34.07;nan;100935.31;5074776;28;20127;-85
2022/09/05 09:50:41;;;;;;;3.05;1.60;;;;;;;33.58;nan;100940.16;5072309;28;20056;-85
2022/09/05 09:53:39;;;;;;;2.83;1.58;;;;;;;33.32;nan;100947.09;5042156;28;20044;-85
2022/09/05 09:56:26;;;;;;;1.88;1.40;;;;;;;32.87;nan;100941.03;5027780;28;20036;-85
2022/09/05 09:59:22;;;;;;;1.80;1.35;;;;;;;32.51;nan;100933.19;5074116;28;20604;-85
2022/09/05 10:02:14;;;;;;;1.73;1.35;;;;;;;34.57;nan;100940.22;5070541;28;20035;-85
2022/09/05 10:05:01;;;;;;;2.95;1.30;;;;;;;36.78;nan;100934.09;5060499;28;20123;-86
2022/09/05 10:07:56;;;;;;;2.08;1.40;;;;;;;36.83;nan;100928.41;5061269;28;20115;-86
2022/09/05 10:10:42;;;;;;;2.58;1.58;;;;;;;36.51;nan;100938.63;5079420;28;21186;-86
2022/09/05 10:13:49;;;;;;;3.17;1.95;;;;;;;38.34;nan;100932.56;5063671;28;20056;-85
2022/09/05 10:16:42;;;;;;;3.88;1.55;;;;;;;38.59;nan;100930.84;5051372;28;20087;-87
2022/09/05 10:19:45;;;;;;;1.90;1.27;;;;;;;38.74;nan;100926.72;5068053;28;20494;-86
2022/09/05 10:22:39;;;;;;;2.40;1.52;;;;;;;37.56;nan;100923.22;5060084;28;20040;-85
2022/09/05 10:25:37;;;;;;;2.40;1.52;;;;;;;36.08;nan;100911.63;5060735;28;20075;-85
2022/09/05 10:28:10;;;;;;;3.33;1.75;;;;;;;34.95;nan;100910.66;5054688;28;20071;-85
2022/09/05 10:31:07;;;;;;;2.92;1.92;;;;;;;36.45;nan;100906.84;5064460;28;20044;-85
2022/09/05 10:33:35;;;;;;;4.65;1.75;;;;;;;38.93;nan;100912.50;5080981;28;20051;-86
2022/09/05 10:36:21;;;;;;;4.30;2.00;;;;;;;40.08;nan;100824.22;5081406;28;20045;-85
2022/09/05 10:39:01;;;;;;;2.70;1.85;;;;;;;41.76;nan;100872.13;5070294;28;20036;-85
2022/09/05 10:41:49;;;;;;;;;;;;;;;42.42;nan;100827.00;5081928;28;20033;-86
2022/09/05 10:44:23;;;;;;;;;;;;;;;43.21;nan;100884.41;5038965;28;19916;-83
2022/09/05 10:46:59;;;;;;;;;;;;;;;44.14;nan;100887.41;5071678;28;19928;-83
2022/09/05 10:49:26;;;;;;;;;;;;;;;44.08;nan;100870.22;5086235;28;19916;-85
2022/09/05 10:51:58;;;;;;;;;;;;;;;43.18;nan;100873.19;5083028;28;19920;-84
2022/09/05 10:54:24;;;;;;;;;;;;;;;43.60;nan;100866.88;5055995;28;19931;-85
2022/09/05 10:57:00;;;;;;;;;;;;;;;44.72;nan;100864.84;5068783;28;20263;-85
2022/09/05 10:59:30;;;;;;;;;;;;;;;45.27;nan;100875.59;5081501;28;19924;-84
2022/09/05 11:02:06;;;;;;;2.80;1.50;;;;;;;45.14;nan;100869.41;5076986;28;19923;-84
2022/09/05 11:05:16;;;;;;;2.35;1.35;;;;;;;45.73;nan;100873.31;5056791;28;20040;-83
2022/09/05 11:08:06;;;;;;;3.47;1.40;;;;;;;45.42;nan;100862.56;5065563;28;20041;-84
2022/09/05 11:10:48;;;;;;;1.83;1.20;;;;;;;45.50;nan;100855.88;5071658;28;20040;-83
2022/09/05 11:13:38;;;;;;;1.98;1.20;;;;;;;45.41;nan;100850.59;5078295;28;20037;-84
2022/09/05 11:16:20;;;;;;;2.90;1.63;;;;;;;45.63;nan;100846.06;5062588;28;20056;-85
2022/09/05 11:18:54;;;;;;;3.58;1.40;;;;;;;45.87;nan;100852.28;5082145;28;20055;-85
2022/09/05 11:21:38;;;;;;;1.92;1.10;;;;;;;45.97;nan;100840.41;5077293;28;20043;-85
2022/09/05 11:24:22;;;;;;;2.92;1.38;;;;;;;45.73;nan;100842.56;5086590;28;20032;-86
2022/09/05 11:27:22;;;;;;;2.40;1.40;;;;;;;45.70;nan;100834.97;5084276;28;20059;-86
2022/09/05 11:29:56;;;;;;;2.65;1.20;;;;;;;46.40;nan;100826.75;5062486;28;20032;-85
2022/09/05 11:32:33;;;;;;;1.42;1.10;;;;;;;46.35;nan;100833.53;5088559;28;20046;-85
2022/09/05 11:35:15;;;;;;;1.60;1.20;;;;;;;46.54;nan;100832.44;5090761;28;20028;-85
2022/09/05 11:38:06;;;;;;;3.97;1.17;;;;;;;46.71;nan;100818.94;5087880;28;20025;-85
2022/09/05 11:40:46;;;;;;;2.22;1.35;;;;;;;46.96;nan;100822.69;5072357;28;20081;-86
2022/09/05 11:43:53;;;;;;;1.35;1.00;;;;;;;47.38;nan;100831.63;5085902;28;20044;-85
2022/09/05 11:46:25;;;;;;;1.75;1.10;;;;;;;47.32;nan;100817.22;5048050;28;20036;-85
2022/09/05 11:49:12;;;;;;;2.00;1.10;;;;;;;47.27;nan;100816.78;5069202;28;20043;-85
2022/09/05 11:52:15;;;;;;;2.53;1.27;;;;;;;47.13;nan;100814.75;5078485;28;20530;-85
2022/09/05 11:55:18;;;;;;;2.40;1.00;;;;;;;46.01;nan;100816.09;5082582;28;20032;-85
2022/09/05 11:57:43;;;;;;;2.00;0.90;;;;;;;44.52;nan;100805.56;5086568;28;20032;-87
2022/09/05 12:00:18;;;;;;;1.75;1.00;;;;;;;42.91;nan;100797.09;5068949;28;20044;-86
2022/09/05 12:03:15;;;;;;;1.38;0.93;;;;;;;41.70;nan;100796.63;5068478;28;20050;-86
2022/09/05 12:06:12;;;;;;;1.38;0.90;;;;;;;40.52;nan;100798.72;5061683;28;20039;-87
2022/09/05 12:08:57;;;;;;;3.42;1.15;;;;;;;39.74;nan;100789.44;5073757;28;20048;-85
2022/09/05 12:12:01;;;;;;;1.98;1.10;;;;;;;38.90;nan;100783.97;5069637;28;20040;-87
2022/09/05 12:14:35;;;;;;;2.00;1.13;;;;;;;38.31;nan;100779.34;5057292;28;20109;-86
2022/09/05 12:17:07;;;;;;;1.00;0.90;;;;;;;37.62;nan;100785.91;5067282;28;20037;-87
2022/09/05 12:19:36;;;;;;;1.80;1.10;;;;;;;37.10;nan;100775.72;5080869;28;20032;-87
2022/09/05 12:22:26;;;;;;;3.13;1.02;;;;;;;36.76;nan;100773.75;5081501;28;20064;-85
2022/09/05 12:25:21;;;;;;;2.60;1.20;;;;;;;36.39;nan;100777.84;5085584;28;20059;-88
2022/09/05 12:27:53;;;;;;;1.48;0.95;;;;;;;36.00;nan;100773.97;5089016;28;20051;-87
2022/09/05 12:30:26;;;;;;;1.55;1.20;;;;;;;35.67;nan;100782.56;5070084;28;20067;-88
2022/09/05 12:32:54;;;;;;;2.17;1.20;;;;;;;35.23;nan;100763.00;5081210;28;20046;-87
2022/09/05 12:36:02;;;;;;;2.67;1.00;;;;;;;34.84;nan;100761.66;5068796;28;20036;-85
2022/09/05 12:39:21;;;;;;;2.85;1.10;;;;;;;34.58;nan;100768.81;5080115;28;20066;-86
2022/09/05 12:41:59;;;;;;;2.55;1.10;;;;;;;34.21;nan;100760.50;4991473;28;20129;-85
2022/09/05 12:44:44;;;;;;;3.33;1.25;;;;;;;33.98;nan;100765.03;5071342;28;20039;-86
2022/09/05 12:47:17;;;;;;;2.13;1.02;;;;;;;33.72;nan;100761.94;5067322;28;20043;-86
2022/09/05 12:49:47;;;;;;;1.73;1.33;;;;;;;33.49;nan;100760.97;5070255;28;20067;-85
2022/09/05 12:52:15;;;;;;;1.73;1.30;;;;;;;33.40;nan;100757.28;5079937;28;20098;-88
2022/09/05 12:54:53;;;;;;;2.70;1.20;;;;;;;33.19;nan;100752.13;5079691;28;20379;-87
2022/09/05 12:57:31;;;;;;;1.85;1.10;;;;;;;32.97;nan;100751.91;5079041;28;20036;-86
2022/09/05 13:00:01;;;;;;;2.38;1.30;;;;;;;32.67;nan;100744.91;5066401;28;20037;-85
2022/09/05 13:02:33;;;;;;;2.92;1.38;;;;;;;32.62;nan;100748.53;5063478;28;20404;-85
2022/09/05 13:05:11;;;;;;;1.60;1.08;;;;;;;32.41;nan;100741.69;5068309;28;20399;-86
2022/09/05 13:07:45;;;;;;;2.65;1.10;;;;;;;32.40;nan;100740.06;5058738;28;20408;-85
2022/09/05 13:10:21;;;;;;;2.38;1.60;;;;;;;32.13;nan;100741.44;5079344;28;20032;-86
2022/09/05 13:12:53;;;;;;;2.60;1.40;;;;;;;31.99;nan;100741.34;5066148;28;21167;-85
2022/09/05 13:15:37;;;;;;;2.15;1.45;;;;;;;31.89;nan;100749.63;5075757;28;20043;-87
2022/09/05 13:18:07;;;;;;;;;;;;;;;31.79;nan;100741.53;5082790;28;20048;-86
2022/09/05 13:20:36;;;;;;;3.03;1.50;;;;;;;31.72;nan;100742.66;5069554;28;19977;-87
2022/09/05 13:23:21;;;;;;;2.30;1.35;;;;;;;31.64;nan;100740.56;5082579;28;20041;-84
2022/09/05 13:25:57;;;;;;;2.33;1.20;;;;;;;31.56;nan;100737.63;5072446;28;20128;-87